Latest Weather Observations for Darwin Harbour

IDD60901

Issued at 10:11 pm CST Monday 22 December 2014 (issued every 10 minutes, with the page automatically refreshed every 10 minutes)

About weather observations | Map of Darwin area stations | Latest observations for Darwin area | Other Formats
Station Details ID: 014072 Name: DARWIN NTC AWS Lat: -12.47 Lon: 130.85 Height: 0.0 m
Data from the previous 72 hours. | See also: Recent months for locations in Northern Territory
Date/Time
CST
Tmp

°C
App
Tmp
°C
Dew
Point
°C
Rel
Hum
%
Delta-T

°C
Wind Press
QNH
hPa
Press
MSL
hPa
Rain
since
9 am
mm
Dir
 
Spd
km/h
Gust
km/h
Spd
kts
Gust
kts
22/10:00pm - - - - - W 11 15 6 8 1007.0 1006.9 -
22/09:30pm - - - - - W 11 15 6 8 1007.0 1006.9 -
22/09:00pm - - - - - W 9 13 5 7 1007.0 1006.9 -
22/08:30pm - - - - - W 11 17 6 9 1006.5 1006.4 -
22/08:00pm - - - - - WNW 9 15 5 8 1006.2 1006.1 -
22/07:30pm - - - - - WNW 11 20 6 11 1005.9 1005.8 -
22/07:00pm - - - - - NW 13 20 7 11 1005.4 1005.3 -
22/06:30pm - - - - - WNW 9 19 5 10 1005.0 1004.9 -
22/06:00pm - - - - - NW 13 22 7 12 1004.9 1004.8 -
22/05:30pm - - - - - NW 13 20 7 11 1004.5 1004.4 -
22/05:00pm - - - - - NW 13 22 7 12 1004.3 1004.2 -
22/04:30pm - - - - - NW 9 24 5 13 1004.6 1004.5 -
22/04:00pm - - - - - WNW 13 20 7 11 1005.1 1005.0 -
22/03:30pm - - - - - W 15 24 8 13 1005.6 1005.5 -
22/03:00pm - - - - - W 15 24 8 13 1005.7 1005.6 -
22/02:30pm - - - - - W 15 20 8 11 1006.1 1006.0 -
22/02:00pm - - - - - W 19 24 10 13 1006.5 1006.4 -
22/01:30pm - - - - - WNW 13 24 7 13 1007.2 1007.1 -
22/01:00pm - - - - - WNW 15 24 8 13 1007.5 1007.4 -
22/12:30pm - - - - - W 9 17 5 9 1007.7 1007.6 -
22/12:00pm - - - - - W 9 15 5 8 1007.9 1007.8 -
22/11:30am - - - - - W 11 19 6 10 1008.4 1008.3 -
22/11:00am - - - - - WNW 9 19 5 10 1008.5 1008.4 -
22/10:30am - - - - - W 7 11 4 6 1008.5 1008.4 -
22/10:00am - - - - - CALM 0 6 0 3 1008.6 1008.5 -
22/09:30am - - - - - NE 6 9 3 5 1008.7 1008.6 -
22/09:00am - - - - - N 6 13 3 7 1009.0 1008.9 -
22/08:30am - - - - - NNW 7 17 4 9 1008.9 1008.8 -
22/08:00am - - - - - NNW 9 20 5 11 1008.7 1008.6 -
22/07:30am - - - - - E 20 32 11 17 1007.8 1007.7 -
22/07:00am - - - - - E 19 22 10 12 1007.3 1007.2 -
22/06:30am - - - - - ENE 13 20 7 11 1007.0 1006.9 -
22/06:00am - - - - - E 9 11 5 6 1007.0 1006.9 -
22/05:30am - - - - - S 2 6 1 3 1006.5 1006.4 -
22/05:00am - - - - - SW 4 6 2 3 1006.5 1006.4 -
22/04:30am - - - - - WSW 2 6 1 3 1006.2 1006.1 -
22/04:00am - - - - - WSW 7 11 4 6 1006.3 1006.2 -
22/03:30am - - - - - WSW 7 9 4 5 1006.3 1006.2 -
22/03:00am - - - - - W 6 11 3 6 1006.3 1006.2 -
22/02:30am - - - - - W 11 15 6 8 1006.2 1006.1 -
22/02:00am - - - - - WNW 7 11 4 6 1006.5 1006.4 -
22/01:30am - - - - - W 9 15 5 8 1006.7 1006.6 -
22/01:00am - - - - - W 11 17 6 9 1006.8 1006.7 -
22/12:30am - - - - - W 7 13 4 7 1007.0 1006.9 -
22/12:00am - - - - - WNW 13 17 7 9 1007.2 1007.1 -
 
Date/Time
CST
Tmp

°C
App
Tmp
°C
Dew
Point
°C
Rel
Hum
%
Delta-T

°C
Wind Press
QNH
hPa
Press
MSL
hPa
Rain
since
9 am
mm
Dir
 
Spd
km/h
Gust
km/h
Spd
kts
Gust
kts
21/11:30pm - - - - - W 13 19 7 10 1007.5 1007.4 -
21/11:00pm - - - - - WNW 9 13 5 7 1007.2 1007.1 -
21/10:30pm - - - - - WNW 9 15 5 8 1007.0 1006.9 -
21/10:00pm - - - - - WNW 11 17 6 9 1007.1 1007.0 -
21/09:30pm - - - - - NW 11 22 6 12 1006.9 1006.8 -
21/09:00pm - - - - - NW 9 19 5 10 1006.3 1006.2 -
21/08:30pm - - - - - NNW 9 13 5 7 1006.1 1006.0 -
21/08:00pm - - - - - NNW 4 7 2 4 1005.6 1005.5 -
21/07:30pm - - - - - NW 4 6 2 3 1005.2 1005.1 -
21/07:00pm - - - - - WNW 6 7 3 4 1004.8 1004.7 -
21/06:30pm - - - - - WNW 7 11 4 6 1004.2 1004.1 -
21/06:00pm - - - - - W 7 9 4 5 1004.0 1003.9 -
21/05:30pm - - - - - W 7 13 4 7 1004.0 1003.9 -
21/05:00pm - - - - - WNW 11 15 6 8 1004.1 1004.0 -
21/04:30pm - - - - - WNW 9 15 5 8 1004.3 1004.2 -
21/04:00pm - - - - - WNW 13 19 7 10 1004.5 1004.4 -
21/03:30pm - - - - - WNW 11 17 6 9 1004.8 1004.7 -
21/03:00pm - - - - - W 9 13 5 7 1005.3 1005.2 -
21/02:30pm - - - - - WSW 9 11 5 6 1005.8 1005.7 -
21/02:00pm - - - - - WSW 7 11 4 6 1006.1 1006.0 -
21/01:30pm - - - - - W 9 13 5 7 1006.7 1006.6 -
21/01:00pm - - - - - W 9 15 5 8 1007.3 1007.2 -
21/12:30pm - - - - - S 2 6 1 3 1007.5 1007.4 -
21/12:00pm - - - - - SSE 9 13 5 7 1007.9 1007.8 -
21/11:30am - - - - - SE 17 20 9 11 1008.5 1008.4 -
21/11:00am - - - - - ESE 19 22 10 12 1009.0 1008.9 -
21/10:30am - - - - - ESE 17 20 9 11 1009.3 1009.2 -
21/10:00am - - - - - ESE 11 17 6 9 1009.3 1009.2 -
21/09:30am - - - - - ESE 17 20 9 11 1009.2 1009.1 -
21/09:00am - - - - - SE 20 28 11 15 1009.3 1009.2 -
21/08:30am - - - - - SE 19 24 10 13 1009.1 1009.0 -
21/08:00am - - - - - SE 15 19 8 10 1008.4 1008.3 -
21/07:30am - - - - - SSW 2 6 1 3 1007.8 1007.7 -
21/07:00am - - - - - WSW 6 7 3 4 1007.4 1007.3 -
21/06:30am - - - - - WSW 7 9 4 5 1007.2 1007.1 -
21/06:00am - - - - - WNW 4 6 2 3 1006.9 1006.8 -
21/05:30am - - - - - W 6 7 3 4 1006.7 1006.6 -
21/05:00am - - - - - WSW 6 7 3 4 1006.4 1006.3 -
21/04:30am - - - - - WSW 7 11 4 6 1006.1 1006.0 -
21/04:00am - - - - - WSW 9 11 5 6 1005.9 1005.8 -
21/03:30am - - - - - WSW 7 11 4 6 1006.0 1005.9 -
21/03:00am - - - - - WSW 9 11 5 6 1005.9 1005.8 -
21/02:30am - - - - - WSW 9 15 5 8 1006.2 1006.1 -
21/02:00am - - - - - WNW 9 13 5 7 1006.3 1006.2 -
21/01:30am - - - - - WNW 7 13 4 7 1007.0 1006.9 -
21/01:00am - - - - - NW 9 17 5 9 1007.4 1007.3 -
21/12:30am - - - - - WNW 19 32 10 17 1008.1 1008.0 -
21/12:00am - - - - - WSW 9 13 5 7 1008.1 1008.0 -
 
Date/Time
CST
Tmp

°C
App
Tmp
°C
Dew
Point
°C
Rel
Hum
%
Delta-T

°C
Wind Press
QNH
hPa
Press
MSL
hPa
Rain
since
9 am
mm
Dir
 
Spd
km/h
Gust
km/h
Spd
kts
Gust
kts
20/11:30pm - - - - - SW 13 17 7 9 1008.1 1008.0 -
20/11:00pm - - - - - W 13 17 7 9 1008.1 1008.0 -
20/10:30pm - - - - - WNW 11 17 6 9 1007.8 1007.7 -
20/10:00pm - - - - - NW 7 13 4 7 1007.4 1007.3 -
20/09:30pm - - - - - NW 4 9 2 5 1007.2 1007.1 -
20/09:00pm - - - - - NNW 9 17 5 9 1006.8 1006.7 -
20/08:30pm - - - - - NNW 6 11 3 6 1006.2 1006.1 -
20/08:00pm - - - - - N 6 13 3 7 1005.8 1005.7 -
20/07:30pm - - - - - NNW 7 13 4 7 1005.3 1005.2 -
20/07:00pm - - - - - NNW 11 20 6 11 1004.8 1004.7 -
20/06:30pm - - - - - NNW 9 17 5 9 1004.6 1004.5 -
20/06:00pm - - - - - NW 9 17 5 9 1004.4 1004.3 -
20/05:30pm - - - - - NNW 11 19 6 10 1004.0 1003.9 -
20/05:00pm - - - - - NNW 11 19 6 10 1004.1 1004.0 -
20/04:30pm - - - - - WNW 13 20 7 11 1004.1 1004.0 -
20/04:00pm - - - - - NW 9 17 5 9 1004.2 1004.1 -
20/03:30pm - - - - - WNW 11 17 6 9 1004.6 1004.5 -
20/03:00pm - - - - - WNW 11 19 6 10 1005.1 1005.0 -
20/02:30pm - - - - - W 11 17 6 9 1005.6 1005.5 -
20/02:00pm - - - - - W 7 11 4 6 1006.0 1005.9 -
20/01:30pm - - - - - SE 4 6 2 3 1006.4 1006.3 -
20/01:00pm - - - - - SE 4 6 2 3 1007.0 1006.9 -
20/12:30pm - - - - - ESE 4 6 2 3 1007.6 1007.5 -
20/12:00pm - - - - - S 2 6 1 3 1008.1 1008.0 -
20/11:30am - - - - - ESE 2 6 1 3 1008.6 1008.5 -
20/11:00am - - - - - ESE 7 11 4 6 1009.0 1008.9 -
20/10:30am - - - - - ESE 9 13 5 7 1009.3 1009.2 -
20/10:00am - - - - - SSE 6 11 3 6 1009.5 1009.4 -
20/09:30am - - - - - SSE 7 11 4 6 1009.6 1009.5 -
20/09:00am - - - - - SSE 9 17 5 9 1009.7 1009.6 -
20/08:30am - - - - - W 4 9 2 5 1009.9 1009.8 -
20/08:00am - - - - - SW 11 15 6 8 1009.6 1009.5 -
20/07:30am - - - - - SW 13 20 7 11 1009.3 1009.2 -
20/07:00am - - - - - WSW 13 19 7 10 1009.2 1009.1 -
20/06:30am - - - - - WSW 15 20 8 11 1009.3 1009.2 -
20/06:00am - - - - - SW 11 17 6 9 1009.0 1008.9 -
20/05:30am - - - - - W 17 28 9 15 1009.7 1009.6 -
20/05:22am - - - - - WSW 19 28 10 15 1009.3 1009.2 -
20/05:00am - - - - - SW 24 35 13 19 1007.3 1007.2 -
20/04:30am - - - - - WSW 15 20 8 11 1007.0 1006.9 -
20/04:00am - - - - - W 17 20 9 11 1007.4 1007.3 -
20/03:30am - - - - - W 11 17 6 9 1007.3 1007.2 -
20/03:00am - - - - - WNW 13 17 7 9 1007.7 1007.6 -
20/02:30am - - - - - WNW 9 17 5 9 1007.5 1007.4 -
20/02:00am - - - - - WNW 11 17 6 9 1007.6 1007.5 -
20/01:30am - - - - - WNW 9 17 5 9 1007.4 1007.3 -
20/01:00am - - - - - W 6 9 3 5 1007.9 1007.8 -
20/12:30am - - - - - CALM 0 2 0 1 1009.4 1009.3 -
20/12:00am - - - - - W 2 6 1 3 1009.7 1009.6 -
 
Date/Time
CST
Tmp

°C
App
Tmp
°C
Dew
Point
°C
Rel
Hum
%
Delta-T

°C
Wind Press
QNH
hPa
Press
MSL
hPa
Rain
since
9 am
mm
Dir
 
Spd
km/h
Gust
km/h
Spd
kts
Gust
kts
19/11:30pm - - - - - W 2 4 1 2 1009.3 1009.2 -
19/11:00pm - - - - - WSW 4 6 2 3 1009.8 1009.7 -
19/10:30pm - - - - - SW 4 6 2 3 1009.8 1009.7 -

Latest Capital City Observations: Canberra | Sydney | Melbourne | Brisbane | Adelaide | Perth | Hobart | Darwin

Other Formats:

Comma delimited format used in spreadsheet applications
http://www.bom.gov.au/fwo/IDD60901/IDD60901.95122.axf

JavaScript Object Notation format (JSON) in row-major order
http://www.bom.gov.au/fwo/IDD60901/IDD60901.95122.json